createdAt,value
2017-07-01T00:00:57.743Z,0
2017-07-01T00:01:58.154Z,0
2017-07-01T00:02:57.705Z,0
2017-07-01T00:03:58.008Z,0
2017-07-01T00:04:57.995Z,0
2017-07-01T00:05:57.978Z,0
2017-07-01T00:06:57.656Z,0
2017-07-01T00:07:57.965Z,0
2017-07-01T00:08:57.924Z,0
2017-07-01T00:09:58.256Z,0
2017-07-01T00:10:58.320Z,0
2017-07-01T00:11:57.576Z,0
2017-07-01T00:12:58.195Z,0
2017-07-01T00:13:58.246Z,0
2017-07-01T00:14:57.835Z,0
2017-07-01T00:15:58.225Z,0
2017-07-01T00:16:57.812Z,0
2017-07-01T00:17:57.793Z,0
2017-07-01T00:18:57.769Z,0
2017-07-01T00:19:57.801Z,0
2017-07-01T00:20:58.038Z,0
2017-07-01T00:21:57.712Z,0
2017-07-01T00:22:57.716Z,0
2017-07-01T00:23:57.685Z,0
2017-07-01T00:24:57.988Z,0
2017-07-01T00:25:57.985Z,0
2017-07-01T00:26:57.670Z,0
2017-07-01T00:27:57.643Z,0
2017-07-01T00:28:57.923Z,0
2017-07-01T00:29:57.928Z,0
2017-07-01T00:30:57.958Z,0
2017-07-01T00:31:57.626Z,0
2017-07-01T00:32:57.893Z,0
2017-07-01T00:33:57.547Z,0
2017-07-01T00:34:57.899Z,0
2017-07-01T00:35:57.869Z,0
2017-07-01T00:36:57.855Z,0
2017-07-01T00:37:57.795Z,0
2017-07-01T00:38:57.467Z,0
2017-07-01T00:39:57.481Z,0
2017-07-01T00:40:57.439Z,0
2017-07-01T00:41:57.742Z,0
2017-07-01T00:42:57.711Z,0
2017-07-01T00:43:57.705Z,0
2017-07-01T00:44:57.388Z,0
2017-07-01T00:45:57.889Z,0
2017-07-01T00:46:57.360Z,0
2017-07-01T00:47:57.639Z,0
2017-07-01T00:48:57.320Z,0
2017-07-01T00:49:57.612Z,0
2017-07-01T00:50:57.289Z,0
2017-07-01T00:51:57.279Z,0
2017-07-01T00:52:57.572Z,0
2017-07-01T00:53:57.541Z,0
2017-07-01T00:54:57.554Z,0
2017-07-01T00:55:57.193Z,0
2017-07-01T00:56:57.499Z,0
2017-07-01T00:57:57.175Z,0
2017-07-01T00:58:57.460Z,0
2017-07-01T00:59:57.452Z,0
2017-07-01T01:00:57.132Z,0
2017-07-01T01:01:57.109Z,0
2017-07-01T01:02:56.794Z,0
2017-07-01T01:03:57.081Z,0
2017-07-01T01:04:57.105Z,0
2017-07-01T01:05:57.057Z,0
2017-07-01T01:06:57.040Z,0
2017-07-01T01:07:57.015Z,0
2017-07-01T01:08:57.320Z,0
2017-07-01T01:09:56.704Z,0
2017-07-01T01:10:57.292Z,0
2017-07-01T01:11:57.291Z,0
2017-07-01T01:12:56.950Z,0
2017-07-01T01:13:57.231Z,0
2017-07-01T01:14:57.210Z,0
2017-07-01T01:15:57.013Z,0
2017-07-01T01:16:57.174Z,0
2017-07-01T01:17:56.611Z,0
2017-07-01T01:18:56.848Z,0
2017-07-01T01:19:56.538Z,0
2017-07-01T01:20:56.821Z,0
2017-07-01T01:21:57.111Z,0
2017-07-01T01:22:57.099Z,0
2017-07-01T01:23:56.547Z,0
2017-07-01T01:24:56.770Z,0
2017-07-01T01:25:56.427Z,0
2017-07-01T01:26:56.412Z,0
2017-07-01T01:27:56.724Z,0
2017-07-01T01:28:56.686Z,0
2017-07-01T01:29:56.991Z,0
2017-07-01T01:30:56.812Z,0
2017-07-01T01:31:56.690Z,0
2017-07-01T01:32:56.656Z,0
2017-07-01T01:33:56.302Z,0
2017-07-01T01:34:56.639Z,0
2017-07-01T01:35:56.591Z,0
2017-07-01T01:36:56.574Z,0
2017-07-01T01:37:56.262Z,0
2017-07-01T01:38:56.540Z,0
2017-07-01T01:39:56.579Z,0
2017-07-01T01:40:56.185Z,0
2017-07-01T01:41:56.189Z,0
2017-07-01T01:42:56.463Z,0
2017-07-01T01:43:56.456Z,0
2017-07-01T01:44:56.729Z,0
2017-07-01T01:45:56.442Z,0
2017-07-01T01:46:56.697Z,0
2017-07-01T01:47:56.395Z,0
2017-07-01T01:48:56.059Z,0
2017-07-01T01:49:56.403Z,0
2017-07-01T01:50:56.038Z,0
2017-07-01T01:51:56.339Z,0
2017-07-01T01:52:56.620Z,0
2017-07-01T01:53:55.997Z,0
2017-07-01T01:54:56.323Z,0
2017-07-01T01:55:56.274Z,0
2017-07-01T01:56:55.633Z,0
2017-07-01T01:57:56.553Z,0
2017-07-01T01:58:55.599Z,0
2017-07-01T01:59:55.899Z,0
2017-07-01T02:00:56.299Z,0
2017-07-01T02:01:56.181Z,0
2017-07-01T02:02:56.451Z,0
2017-07-01T02:03:56.445Z,0
2017-07-01T02:04:56.129Z,0
2017-07-01T02:05:56.097Z,0
2017-07-01T02:06:56.091Z,0
2017-07-01T02:07:56.051Z,0
2017-07-01T02:08:56.170Z,0
2017-07-01T02:09:56.041Z,0
2017-07-01T02:10:56.041Z,0
2017-07-01T02:11:55.999Z,0
2017-07-01T02:12:55.995Z,0
2017-07-01T02:13:55.972Z,0
2017-07-01T02:14:55.963Z,0
2017-07-01T02:15:55.941Z,0
2017-07-01T02:16:55.679Z,0
2017-07-01T02:17:55.915Z,0
2017-07-01T02:18:56.197Z,0
2017-07-01T02:19:55.568Z,0
2017-07-01T02:20:56.166Z,0
2017-07-01T02:21:56.189Z,0
2017-07-01T02:22:55.843Z,0
2017-07-01T02:23:55.511Z,0
2017-07-01T02:24:56.092Z,0
2017-07-01T02:25:55.778Z,0
2017-07-01T02:26:55.456Z,0
2017-07-01T02:27:55.757Z,0
2017-07-01T02:28:55.432Z,0
2017-07-01T02:29:55.408Z,0
2017-07-01T02:30:56.009Z,0
2017-07-01T02:31:56.064Z,0
2017-07-01T02:32:55.981Z,0
2017-07-01T02:33:55.350Z,0
2017-07-01T02:34:55.920Z,0
2017-07-01T02:35:55.619Z,0
2017-07-01T02:36:55.708Z,0
2017-07-01T02:37:55.589Z,0
2017-07-01T02:38:55.668Z,0
2017-07-01T02:39:55.558Z,0
2017-07-01T02:40:55.889Z,0
2017-07-01T02:41:55.211Z,0
2017-07-01T02:42:55.237Z,0
2017-07-01T02:43:55.180Z,0
2017-07-01T02:44:55.488Z,0
2017-07-01T02:45:55.789Z,0
2017-07-01T02:46:55.159Z,0
2017-07-01T02:47:55.727Z,0
2017-07-01T02:48:55.407Z,0
2017-07-01T02:49:55.710Z,0
2017-07-01T02:50:55.679Z,0
2017-07-01T02:51:55.369Z,0
2017-07-01T02:52:55.340Z,4
2017-07-01T02:53:55.024Z,4
2017-07-01T02:54:55.649Z,4
2017-07-01T02:55:55.279Z,0
2017-07-01T02:56:55.317Z,0
2017-07-01T02:57:55.289Z,4
2017-07-01T02:58:55.299Z,4
2017-07-01T02:59:55.548Z,4
2017-07-01T03:00:55.210Z,4
2017-07-01T03:01:55.220Z,8
2017-07-01T03:02:55.491Z,8
2017-07-01T03:03:55.471Z,8
2017-07-01T03:04:55.474Z,8
2017-07-01T03:05:55.189Z,12
2017-07-01T03:06:55.114Z,8
2017-07-01T03:07:55.475Z,8
2017-07-01T03:08:55.401Z,12
2017-07-01T03:09:55.469Z,12
2017-07-01T03:10:55.041Z,12
2017-07-01T03:11:54.804Z,12
2017-07-01T03:12:55.349Z,16
2017-07-01T03:13:55.309Z,16
2017-07-01T03:14:55.286Z,16
2017-07-01T03:15:54.959Z,16
2017-07-01T03:16:55.256Z,24
2017-07-01T03:17:54.941Z,20
2017-07-01T03:18:55.256Z,24
2017-07-01T03:19:54.598Z,28
2017-07-01T03:20:55.258Z,32
2017-07-01T03:21:55.182Z,32
2017-07-01T03:22:54.852Z,36
2017-07-01T03:23:54.844Z,40
2017-07-01T03:24:54.572Z,44
2017-07-01T03:25:54.491Z,44
2017-07-01T03:26:54.803Z,48
2017-07-01T03:27:54.462Z,48
2017-07-01T03:28:54.754Z,48
2017-07-01T03:29:54.440Z,48
2017-07-01T03:30:55.029Z,48
2017-07-01T03:31:54.400Z,48
2017-07-01T03:32:54.078Z,52
2017-07-01T03:33:54.660Z,56
2017-07-01T03:34:54.973Z,60
2017-07-01T03:35:54.641Z,64
2017-07-01T03:36:54.348Z,76
2017-07-01T03:37:54.298Z,80
2017-07-01T03:38:54.891Z,80
2017-07-01T03:39:54.577Z,80
2017-07-01T03:40:54.235Z,76
2017-07-01T03:41:54.846Z,84
2017-07-01T03:42:54.266Z,88
2017-07-01T03:43:54.819Z,92
2017-07-01T03:44:54.499Z,100
2017-07-01T03:45:53.849Z,100
2017-07-01T03:46:54.780Z,100
2017-07-01T03:47:54.432Z,104
2017-07-01T03:48:54.480Z,104
2017-07-01T03:49:54.720Z,96
2017-07-01T03:50:54.111Z,88
2017-07-01T03:51:54.072Z,100
2017-07-01T03:52:54.652Z,100
2017-07-01T03:53:54.642Z,100
2017-07-01T03:54:54.337Z,116
2017-07-01T03:55:54.320Z,124
2017-07-01T03:56:54.601Z,124
2017-07-01T03:57:54.605Z,128
2017-07-01T03:58:54.039Z,140
2017-07-01T03:59:54.547Z,140
2017-07-01T04:00:53.911Z,148
2017-07-01T04:01:54.212Z,140
2017-07-01T04:02:54.197Z,96
2017-07-01T04:03:54.202Z,92
2017-07-01T04:04:54.168Z,88
2017-07-01T04:05:54.441Z,96
2017-07-01T04:06:53.829Z,104
2017-07-01T04:07:54.201Z,112
2017-07-01T04:08:54.089Z,124
2017-07-01T04:09:54.378Z,124
2017-07-01T04:10:54.059Z,128
2017-07-01T04:11:54.339Z,140
2017-07-01T04:12:54.343Z,132
2017-07-01T04:13:54.003Z,108
2017-07-01T04:14:53.992Z,128
2017-07-01T04:15:54.049Z,164
2017-07-01T04:16:54.259Z,184
2017-07-01T04:17:53.629Z,204
2017-07-01T04:18:54.248Z,232
2017-07-01T04:19:54.219Z,280
2017-07-01T04:20:54.193Z,272
2017-07-01T04:21:54.168Z,300
2017-07-01T04:22:53.550Z,340
2017-07-01T04:23:53.850Z,344
2017-07-01T04:24:53.509Z,320
2017-07-01T04:25:53.820Z,328
2017-07-01T04:26:53.789Z,300
2017-07-01T04:27:53.458Z,320
2017-07-01T04:28:53.769Z,352
2017-07-01T04:29:53.749Z,388
2017-07-01T04:30:53.429Z,348
2017-07-01T04:31:53.405Z,320
2017-07-01T04:32:53.699Z,172
2017-07-01T04:33:53.979Z,144
2017-07-01T04:34:53.677Z,148
2017-07-01T04:35:53.659Z,160
2017-07-01T04:36:53.630Z,180
2017-07-01T04:37:53.918Z,212
2017-07-01T04:38:53.590Z,192
2017-07-01T04:39:53.618Z,236
2017-07-01T04:40:53.241Z,256
2017-07-01T04:41:53.284Z,280
2017-07-01T04:42:53.830Z,296
2017-07-01T04:43:53.522Z,332
2017-07-01T04:44:53.491Z,324
2017-07-01T04:45:53.201Z,284
2017-07-01T04:46:53.499Z,260
2017-07-01T04:47:53.739Z,240
2017-07-01T04:48:53.740Z,280
2017-07-01T04:49:53.123Z,356
2017-07-01T04:50:53.682Z,492
2017-07-01T04:51:52.830Z,436
2017-07-01T04:52:53.673Z,444
2017-07-01T04:53:53.351Z,396
2017-07-01T04:54:53.021Z,456
2017-07-01T04:55:53.313Z,428
2017-07-01T04:56:53.288Z,416
2017-07-01T04:57:52.961Z,440
2017-07-01T04:58:53.589Z,412
2017-07-01T04:59:53.352Z,336
2017-07-01T05:00:53.570Z,300
2017-07-01T05:01:53.524Z,336
2017-07-01T05:02:53.297Z,428
2017-07-01T05:03:53.591Z,452
2017-07-01T05:04:53.458Z,380
2017-07-01T05:05:52.854Z,328
2017-07-01T05:06:53.439Z,440
2017-07-01T05:07:52.801Z,444
2017-07-01T05:08:53.089Z,540
2017-07-01T05:09:53.429Z,528
2017-07-01T05:10:53.050Z,524
2017-07-01T05:11:53.070Z,552
2017-07-01T05:12:53.031Z,424
2017-07-01T05:13:53.062Z,408
2017-07-01T05:14:53.007Z,444
2017-07-01T05:15:52.783Z,492
2017-07-01T05:16:52.970Z,516
2017-07-01T05:17:52.633Z,428
2017-07-01T05:18:52.685Z,520
2017-07-01T05:19:53.231Z,616
2017-07-01T05:20:53.243Z,584
2017-07-01T05:21:53.190Z,684
2017-07-01T05:22:52.875Z,684
2017-07-01T05:23:52.863Z,828
2017-07-01T05:24:52.911Z,736
2017-07-01T05:25:53.131Z,660
2017-07-01T05:26:52.810Z,632
2017-07-01T05:27:52.842Z,568
2017-07-01T05:28:52.501Z,516
2017-07-01T05:29:52.760Z,448
2017-07-01T05:30:52.743Z,480
2017-07-01T05:31:53.021Z,484
2017-07-01T05:32:53.093Z,592
2017-07-01T05:33:53.042Z,724
2017-07-01T05:34:52.784Z,724
2017-07-01T05:35:52.663Z,616
2017-07-01T05:36:53.029Z,512
2017-07-01T05:37:52.962Z,524
2017-07-01T05:38:52.916Z,532
2017-07-01T05:39:52.903Z,628
2017-07-01T05:40:52.610Z,552
2017-07-01T05:41:52.242Z,452
2017-07-01T05:42:52.231Z,496
2017-07-01T05:43:52.842Z,556
2017-07-01T05:44:52.865Z,488
2017-07-01T05:45:52.510Z,536
2017-07-01T05:46:52.484Z,536
2017-07-01T05:47:52.859Z,568
2017-07-01T05:48:52.805Z,604
2017-07-01T05:49:52.130Z,692
2017-07-01T05:50:52.712Z,748
2017-07-01T05:51:52.392Z,792
2017-07-01T05:52:52.382Z,856
2017-07-01T05:53:52.359Z,956
2017-07-01T05:54:52.643Z,1012
2017-07-01T05:55:52.327Z,1056
2017-07-01T05:56:52.311Z,1056
2017-07-01T05:57:52.341Z,1160
2017-07-01T05:58:52.595Z,1164
2017-07-01T05:59:52.303Z,1112
2017-07-01T06:00:52.643Z,952
2017-07-01T06:01:52.592Z,1056
2017-07-01T06:02:52.512Z,1116
2017-07-01T06:03:52.506Z,1052
2017-07-01T06:04:51.892Z,888
2017-07-01T06:05:52.539Z,932
2017-07-01T06:06:52.451Z,948
2017-07-01T06:07:52.453Z,1032
2017-07-01T06:08:51.828Z,744
2017-07-01T06:09:52.118Z,604
2017-07-01T06:10:52.080Z,636
2017-07-01T06:11:51.770Z,652
2017-07-01T06:12:51.752Z,592
2017-07-01T06:13:52.345Z,564
2017-07-01T06:14:52.011Z,588
2017-07-01T06:15:52.311Z,492
2017-07-01T06:16:51.979Z,444
2017-07-01T06:17:51.983Z,440
2017-07-01T06:18:52.273Z,556
2017-07-01T06:19:51.340Z,620
2017-07-01T06:20:51.913Z,732
2017-07-01T06:21:51.911Z,852
2017-07-01T06:22:51.890Z,908
2017-07-01T06:23:52.181Z,916
2017-07-01T06:24:51.851Z,1056
2017-07-01T06:25:51.849Z,1304
2017-07-01T06:26:51.813Z,1436
2017-07-01T06:27:52.120Z,1572
2017-07-01T06:28:51.791Z,1684
2017-07-01T06:29:51.775Z,1780
2017-07-01T06:30:51.753Z,1864
2017-07-01T06:31:52.061Z,1992
2017-07-01T06:32:51.418Z,2084
2017-07-01T06:33:52.019Z,2016
2017-07-01T06:34:52.010Z,2140
2017-07-01T06:35:51.663Z,2480
2017-07-01T06:36:51.987Z,2404
2017-07-01T06:37:51.628Z,2148
2017-07-01T06:38:51.932Z,2240
2017-07-01T06:39:51.590Z,2092
2017-07-01T06:40:51.900Z,1916
2017-07-01T06:41:51.586Z,1688
2017-07-01T06:42:51.640Z,1484
2017-07-01T06:43:51.540Z,1408
2017-07-01T06:44:51.870Z,1368
2017-07-01T06:45:51.830Z,1572
2017-07-01T06:46:51.801Z,1472
2017-07-01T06:47:51.800Z,1392
2017-07-01T06:48:51.859Z,1392
2017-07-01T06:49:51.777Z,1204
2017-07-01T06:50:50.863Z,1308
2017-07-01T06:51:51.409Z,1148
2017-07-01T06:52:51.417Z,1108
2017-07-01T06:53:51.073Z,1036
2017-07-01T06:54:51.369Z,968
2017-07-01T06:55:51.650Z,1136
2017-07-01T06:56:51.342Z,1040
2017-07-01T06:57:51.641Z,964
2017-07-01T06:58:50.992Z,832
2017-07-01T06:59:51.280Z,920
2017-07-01T07:00:51.275Z,872
2017-07-01T07:01:51.260Z,696
2017-07-01T07:02:50.984Z,624
2017-07-01T07:03:51.532Z,716
2017-07-01T07:04:51.529Z,764
2017-07-01T07:05:51.512Z,840
2017-07-01T07:06:51.504Z,772
2017-07-01T07:07:50.882Z,768
2017-07-01T07:08:51.209Z,868
2017-07-01T07:09:51.251Z,896
2017-07-01T07:10:51.119Z,1076
2017-07-01T07:11:51.409Z,1392
2017-07-01T07:12:51.183Z,1944
2017-07-01T07:13:51.070Z,2560
2017-07-01T07:14:50.853Z,2700
2017-07-01T07:15:51.346Z,2724
2017-07-01T07:16:51.019Z,2700
2017-07-01T07:17:51.000Z,2420
2017-07-01T07:18:50.427Z,2168
2017-07-01T07:19:50.659Z,2044
2017-07-01T07:20:50.975Z,2108
2017-07-01T07:21:50.652Z,2360
2017-07-01T07:22:51.243Z,2456
2017-07-01T07:23:50.972Z,2432
2017-07-01T07:24:50.598Z,2388
2017-07-01T07:25:50.582Z,2436
2017-07-01T07:26:50.941Z,2440
2017-07-01T07:27:50.542Z,2476
2017-07-01T07:28:50.831Z,2476
2017-07-01T07:29:51.110Z,2464
2017-07-01T07:30:51.125Z,2640
2017-07-01T07:31:50.584Z,2772
2017-07-01T07:32:50.500Z,2824
2017-07-01T07:33:50.470Z,2764
2017-07-01T07:34:50.431Z,2744
2017-07-01T07:35:50.732Z,2868
2017-07-01T07:36:50.729Z,2936
2017-07-01T07:37:50.800Z,2884
2017-07-01T07:38:50.684Z,2940
2017-07-01T07:39:50.973Z,3076
2017-07-01T07:40:50.662Z,2912
2017-07-01T07:41:51.039Z,2764
2017-07-01T07:42:50.613Z,2640
2017-07-01T07:43:50.912Z,2696
2017-07-01T07:44:50.593Z,2988
2017-07-01T07:45:50.564Z,3036
2017-07-01T07:46:50.894Z,2336
2017-07-01T07:47:50.575Z,1772
2017-07-01T07:48:50.539Z,1828
2017-07-01T07:49:50.520Z,1808
2017-07-01T07:50:50.510Z,2224
2017-07-01T07:51:50.453Z,3020
2017-07-01T07:52:50.168Z,2848
2017-07-01T07:53:50.753Z,3024
2017-07-01T07:54:50.739Z,2632
2017-07-01T07:55:50.724Z,3336
2017-07-01T07:56:50.702Z,4100
2017-07-01T07:57:50.832Z,4676
2017-07-01T07:58:50.772Z,4996
2017-07-01T07:59:50.755Z,4964
2017-07-01T08:00:50.029Z,4572
2017-07-01T08:01:50.340Z,4368
2017-07-01T08:02:50.631Z,4092
2017-07-01T08:03:50.670Z,3912
2017-07-01T08:04:50.599Z,3984
2017-07-01T08:05:50.570Z,4136
2017-07-01T08:06:49.939Z,3996
2017-07-01T08:07:50.584Z,3740
2017-07-01T08:08:50.239Z,3428
2017-07-01T08:09:50.214Z,3536
2017-07-01T08:10:50.511Z,3636
2017-07-01T08:11:50.161Z,3636
2017-07-01T08:12:50.484Z,3672
2017-07-01T08:13:50.133Z,3736
2017-07-01T08:14:50.439Z,3796
2017-07-01T08:15:50.431Z,3904
2017-07-01T08:16:50.092Z,3952
2017-07-01T08:17:50.123Z,4044
2017-07-01T08:18:50.381Z,4156
2017-07-01T08:19:50.049Z,4512
2017-07-01T08:20:50.349Z,4868
2017-07-01T08:21:49.719Z,5152
2017-07-01T08:22:49.998Z,5452
2017-07-01T08:23:49.996Z,5332
2017-07-01T08:24:49.991Z,5312
2017-07-01T08:25:50.280Z,5736
2017-07-01T08:26:49.998Z,5596
2017-07-01T08:27:49.624Z,5492
2017-07-01T08:28:50.231Z,5392
2017-07-01T08:29:49.607Z,5048
2017-07-01T08:30:50.178Z,4272
2017-07-01T08:31:49.872Z,3968
2017-07-01T08:32:50.169Z,3812
2017-07-01T08:33:50.148Z,3356
2017-07-01T08:34:49.847Z,2996
2017-07-01T08:35:49.822Z,2884
2017-07-01T08:36:49.801Z,2960
2017-07-01T08:37:50.091Z,3268
2017-07-01T08:38:50.101Z,3412
2017-07-01T08:39:50.041Z,3004
2017-07-01T08:40:49.460Z,3268
2017-07-01T08:41:50.036Z,3456
2017-07-01T08:42:50.036Z,3704
2017-07-01T08:43:49.718Z,3952
2017-07-01T08:44:49.997Z,4056
2017-07-01T08:45:49.673Z,3868
2017-07-01T08:46:49.319Z,3688
2017-07-01T08:47:49.629Z,3936
2017-07-01T08:48:49.618Z,3676
2017-07-01T08:49:49.609Z,3344
2017-07-01T08:50:49.908Z,3108
2017-07-01T08:51:49.619Z,2976
2017-07-01T08:52:49.881Z,3236
2017-07-01T08:53:49.253Z,3648
2017-07-01T08:54:49.211Z,3528
2017-07-01T08:55:49.819Z,3336
2017-07-01T08:56:49.819Z,3048
2017-07-01T08:57:49.495Z,2964
2017-07-01T08:58:49.784Z,2656
2017-07-01T08:59:49.149Z,2216
2017-07-01T09:00:49.763Z,1776
2017-07-01T09:01:49.128Z,1680
2017-07-01T09:02:49.718Z,1880
2017-07-01T09:03:49.705Z,2024
2017-07-01T09:04:49.498Z,2116
2017-07-01T09:05:49.360Z,2228
2017-07-01T09:06:49.039Z,2300
2017-07-01T09:07:49.340Z,2268
2017-07-01T09:08:49.639Z,2196
2017-07-01T09:09:49.609Z,2060
2017-07-01T09:10:49.308Z,2028
2017-07-01T09:11:49.596Z,2076
2017-07-01T09:12:49.591Z,2168
2017-07-01T09:13:49.368Z,2320
2017-07-01T09:14:49.538Z,2532
2017-07-01T09:15:49.214Z,2744
2017-07-01T09:16:49.526Z,2924
2017-07-01T09:17:49.493Z,3020
2017-07-01T09:18:49.590Z,3040
2017-07-01T09:19:49.479Z,2996
2017-07-01T09:20:48.583Z,2904
2017-07-01T09:21:49.111Z,2804
2017-07-01T09:22:49.489Z,2760
2017-07-01T09:23:49.411Z,2792
2017-07-01T09:24:49.462Z,3072
2017-07-01T09:25:48.748Z,3440
2017-07-01T09:26:49.202Z,3760
2017-07-01T09:27:48.748Z,3724
2017-07-01T09:28:49.348Z,3468
2017-07-01T09:29:49.340Z,2904
2017-07-01T09:30:49.312Z,2680
2017-07-01T09:31:49.379Z,2748
2017-07-01T09:32:49.291Z,3176
2017-07-01T09:33:49.322Z,3396
2017-07-01T09:34:48.631Z,3448
2017-07-01T09:35:49.222Z,3468
2017-07-01T09:36:49.211Z,3360
2017-07-01T09:37:49.238Z,3156
2017-07-01T09:38:49.240Z,2772
2017-07-01T09:39:48.580Z,2204
2017-07-01T09:40:48.540Z,1876
2017-07-01T09:41:48.901Z,2144
2017-07-01T09:42:48.828Z,2104
2017-07-01T09:43:48.487Z,2000
2017-07-01T09:44:49.190Z,2044
2017-07-01T09:45:48.761Z,2052
2017-07-01T09:46:48.739Z,2332
2017-07-01T09:47:49.080Z,2596
2017-07-01T09:48:48.709Z,2828
2017-07-01T09:49:48.720Z,3124
2017-07-01T09:50:48.075Z,3156
2017-07-01T09:51:48.679Z,3004
2017-07-01T09:52:48.972Z,2964
2017-07-01T09:53:48.638Z,2968
2017-07-01T09:54:48.327Z,2944
2017-07-01T09:55:48.950Z,3192
2017-07-01T09:56:47.999Z,3576
2017-07-01T09:57:47.980Z,3908
2017-07-01T09:58:48.579Z,4372
2017-07-01T09:59:48.558Z,4544
2017-07-01T10:00:48.548Z,4584
2017-07-01T10:01:48.225Z,4512
2017-07-01T10:02:48.213Z,4004
2017-07-01T10:03:48.205Z,4752
2017-07-01T10:04:48.809Z,5592
2017-07-01T10:05:48.499Z,6344
2017-07-01T10:06:48.438Z,6984
2017-07-01T10:07:48.139Z,8204
2017-07-01T10:08:48.829Z,7464
2017-07-01T10:09:48.122Z,5240
2017-07-01T10:10:48.110Z,4796
2017-07-01T10:11:48.392Z,4712
2017-07-01T10:12:48.392Z,4128
2017-07-01T10:13:48.347Z,3724
2017-07-01T10:14:48.659Z,3580
2017-07-01T10:15:48.656Z,3244
2017-07-01T10:16:48.307Z,3276
2017-07-01T10:17:48.302Z,3656
2017-07-01T10:18:48.285Z,4016
2017-07-01T10:19:48.262Z,4648
2017-07-01T10:20:48.256Z,4896
2017-07-01T10:21:48.260Z,4548
2017-07-01T10:22:48.530Z,4820
2017-07-01T10:23:48.519Z,4676
2017-07-01T10:24:48.520Z,4708
2017-07-01T10:25:48.192Z,4840
2017-07-01T10:26:48.170Z,4948
2017-07-01T10:27:48.151Z,5812
2017-07-01T10:28:48.151Z,5276
2017-07-01T10:29:48.138Z,4684
2017-07-01T10:30:48.468Z,4160
2017-07-01T10:31:48.135Z,3632
2017-07-01T10:32:48.084Z,3488
2017-07-01T10:33:48.373Z,3948
2017-07-01T10:34:48.058Z,4152
2017-07-01T10:35:48.374Z,3364
2017-07-01T10:36:48.322Z,2492
2017-07-01T10:37:48.329Z,2172
2017-07-01T10:38:48.320Z,2140
2017-07-01T10:39:48.002Z,2420
2017-07-01T10:40:48.310Z,2436
2017-07-01T10:41:48.280Z,2512
2017-07-01T10:42:48.286Z,2460
2017-07-01T10:43:48.250Z,2416
2017-07-01T10:44:48.240Z,2648
2017-07-01T10:45:48.222Z,2496
2017-07-01T10:46:47.911Z,2632
2017-07-01T10:47:48.186Z,2360
2017-07-01T10:48:47.575Z,1928
2017-07-01T10:49:48.152Z,1724
2017-07-01T10:50:48.141Z,1616
2017-07-01T10:51:48.139Z,1984
2017-07-01T10:52:48.112Z,2008
2017-07-01T10:53:48.135Z,2228
2017-07-01T10:54:48.110Z,1936
2017-07-01T10:55:47.766Z,2092
2017-07-01T10:56:47.767Z,1988
2017-07-01T10:57:48.029Z,1996
2017-07-01T10:58:47.722Z,2044
2017-07-01T10:59:48.011Z,2248
2017-07-01T11:00:48.010Z,2448
2017-07-01T11:01:47.681Z,2504
2017-07-01T11:02:47.991Z,2372
2017-07-01T11:03:47.973Z,2544
2017-07-01T11:04:47.636Z,2480
2017-07-01T11:05:47.934Z,2348
2017-07-01T11:06:47.616Z,2316
2017-07-01T11:07:47.971Z,2560
2017-07-01T11:08:47.648Z,2772
2017-07-01T11:09:47.573Z,3304
2017-07-01T11:10:47.850Z,3104
2017-07-01T11:11:47.953Z,3200
2017-07-01T11:12:47.220Z,3396
2017-07-01T11:13:47.512Z,3220
2017-07-01T11:14:47.521Z,3076
2017-07-01T11:15:47.790Z,3016
2017-07-01T11:16:47.779Z,2896
2017-07-01T11:17:47.553Z,2548
2017-07-01T11:18:47.441Z,2552
2017-07-01T11:19:47.091Z,2636
2017-07-01T11:20:47.396Z,2552
2017-07-01T11:21:47.463Z,2344
2017-07-01T11:22:47.741Z,2428
2017-07-01T11:23:47.681Z,2464
2017-07-01T11:24:47.665Z,2472
2017-07-01T11:25:47.647Z,2812
2017-07-01T11:26:47.022Z,3312
2017-07-01T11:27:47.634Z,3708
2017-07-01T11:28:47.310Z,3972
2017-07-01T11:29:48.207Z,3784
2017-07-01T11:30:47.583Z,4048
2017-07-01T11:31:48.242Z,3852
2017-07-01T11:32:46.908Z,4204
2017-07-01T11:33:46.964Z,5456
2017-07-01T11:34:47.192Z,6192
2017-07-01T11:35:47.473Z,6488
2017-07-01T11:36:47.474Z,6876
2017-07-01T11:37:47.510Z,6996
2017-07-01T11:38:47.491Z,6752
2017-07-01T11:39:47.139Z,6516
2017-07-01T11:40:47.208Z,6208
2017-07-01T11:41:47.433Z,5556
2017-07-01T11:42:47.095Z,4748
2017-07-01T11:43:46.785Z,3928
2017-07-01T11:44:47.380Z,3452
2017-07-01T11:45:47.402Z,2996
2017-07-01T11:46:47.334Z,2524
2017-07-01T11:47:47.022Z,2080
2017-07-01T11:48:47.311Z,2044
2017-07-01T11:49:47.296Z,2372
2017-07-01T11:50:47.292Z,2580
2017-07-01T11:51:47.262Z,2428
2017-07-01T11:52:47.263Z,2460
2017-07-01T11:53:46.936Z,2608
2017-07-01T11:54:47.271Z,2564
2017-07-01T11:55:46.885Z,2628
2017-07-01T11:56:47.242Z,2840
2017-07-01T11:57:47.180Z,2956
2017-07-01T11:58:47.162Z,2868
2017-07-01T11:59:47.164Z,2916
2017-07-01T12:00:46.823Z,3100
2017-07-01T12:01:47.132Z,3156
2017-07-01T12:02:47.114Z,3188
2017-07-01T12:03:46.801Z,3736
2017-07-01T12:04:47.087Z,4708
2017-07-01T12:05:46.495Z,5336
2017-07-01T12:06:47.052Z,5868
2017-07-01T12:07:47.052Z,6308
2017-07-01T12:08:47.022Z,6476
2017-07-01T12:09:46.702Z,6544
2017-07-01T12:10:46.735Z,6416
2017-07-01T12:11:47.011Z,5980
2017-07-01T12:12:46.994Z,5644
2017-07-01T12:13:46.946Z,5292
2017-07-01T12:14:46.977Z,4992
2017-07-01T12:15:46.692Z,4896
2017-07-01T12:16:46.937Z,4752
2017-07-01T12:17:46.914Z,4552
2017-07-01T12:18:46.613Z,4260
2017-07-01T12:19:46.591Z,3820
2017-07-01T12:20:46.905Z,3480
2017-07-01T12:21:46.864Z,3152
2017-07-01T12:22:46.253Z,3044
2017-07-01T12:23:46.533Z,2980
2017-07-01T12:24:46.837Z,2976
2017-07-01T12:25:46.526Z,2720
2017-07-01T12:26:46.791Z,2292
2017-07-01T12:27:46.495Z,1936
2017-07-01T12:28:46.485Z,1776
2017-07-01T12:29:46.766Z,1768
2017-07-01T12:30:46.464Z,1712
2017-07-01T12:31:46.718Z,1500
2017-07-01T12:32:46.412Z,1316
2017-07-01T12:33:46.716Z,1268
2017-07-01T12:34:46.074Z,1328
2017-07-01T12:35:46.393Z,1476
2017-07-01T12:36:46.680Z,1516
2017-07-01T12:37:46.639Z,1536
2017-07-01T12:38:46.625Z,1520
2017-07-01T12:39:46.378Z,1548
2017-07-01T12:40:46.586Z,1784
2017-07-01T12:41:45.980Z,2104
2017-07-01T12:42:46.570Z,2404
2017-07-01T12:43:45.937Z,2496
2017-07-01T12:44:46.538Z,2292
2017-07-01T12:45:46.540Z,2104
2017-07-01T12:46:46.221Z,1972
2017-07-01T12:47:46.245Z,1872
2017-07-01T12:48:45.873Z,1692
2017-07-01T12:49:45.870Z,1452
2017-07-01T12:50:45.835Z,1280
2017-07-01T12:51:46.442Z,1232
2017-07-01T12:52:46.433Z,1180
2017-07-01T12:53:46.199Z,1064
2017-07-01T12:54:46.110Z,872
2017-07-01T12:55:45.823Z,780
2017-07-01T12:56:46.380Z,720
2017-07-01T12:57:46.139Z,728
2017-07-01T12:58:46.358Z,832
2017-07-01T12:59:46.342Z,952
2017-07-01T13:00:46.014Z,1068
2017-07-01T13:01:45.804Z,1164
2017-07-01T13:02:46.002Z,1268
2017-07-01T13:03:45.969Z,1428
2017-07-01T13:04:45.661Z,1504
2017-07-01T13:05:45.627Z,1584
2017-07-01T13:06:45.944Z,1724
2017-07-01T13:07:45.911Z,1896
2017-07-01T13:08:45.914Z,2016
2017-07-01T13:09:45.939Z,2316
2017-07-01T13:10:45.887Z,2512
2017-07-01T13:11:46.143Z,2724
2017-07-01T13:12:45.844Z,2928
2017-07-01T13:13:46.197Z,3152
2017-07-01T13:14:46.114Z,3320
2017-07-01T13:15:45.791Z,3420
2017-07-01T13:16:45.802Z,3620
2017-07-01T13:17:45.787Z,3960
2017-07-01T13:18:45.752Z,4176
2017-07-01T13:19:46.043Z,4268
2017-07-01T13:20:46.040Z,4268
2017-07-01T13:21:46.072Z,3996
2017-07-01T13:22:45.696Z,3596
2017-07-01T13:23:45.984Z,3100
2017-07-01T13:24:45.702Z,2644
2017-07-01T13:25:45.978Z,2080
2017-07-01T13:26:45.984Z,1708
2017-07-01T13:27:45.635Z,1476
2017-07-01T13:28:45.626Z,1324
2017-07-01T13:29:45.907Z,1248
2017-07-01T13:30:45.302Z,1264
2017-07-01T13:31:45.336Z,1364
2017-07-01T13:32:45.912Z,1384
2017-07-01T13:33:45.882Z,1480
2017-07-01T13:34:45.874Z,1936
2017-07-01T13:35:45.830Z,2376
2017-07-01T13:36:45.812Z,2540
2017-07-01T13:37:45.809Z,2524
2017-07-01T13:38:45.178Z,2556
2017-07-01T13:39:45.778Z,2428
2017-07-01T13:40:45.871Z,2224
2017-07-01T13:41:45.751Z,2048
2017-07-01T13:42:45.756Z,2148
2017-07-01T13:43:45.735Z,2072
2017-07-01T13:44:45.437Z,2108
2017-07-01T13:45:45.696Z,2232